Terminal Aerodrome Forecast
Issued by NWS Atlanta, GA

Home | Current Version | Previous Version | Text Only | Print | Product List | Glossary On
Versions: 1 2 3 4 5 6 7 8 9 10 11 12 13 14 15 16 17 18
049
FTUS42 KFFC 262323
TAFMCN
TAF
KMCN 262323Z 2700/2724 00000KT P6SM FEW250
     FM270800 12005KT P6SM BKN250
     FM271800 15007KT P6SM BKN150
     FM272100 16008KT P6SM SCT050 BKN100 PROB30 2722/2724 5SM SHRA
      BKN035=

USA.gov is the U.S. government's official web portal to all federal, state and local government web resources and services.